

Wyoming Mesonet
Water Resources Data System and State Climate Office
SEO WACNet, UW USACE UMRB, USDA-ARS, BLM
| Wind | Soil | |||||||||||||||||||
| Temp | Precip | Speed | Dir | Gust | Dir | Humidity | Pressure | Solar | Snow | Temperature (Deg F) | Moisture (%) | |||||||||
| Date Time (MST) | (F) | (in) | (mph) | (deg) | (mph) | (deg) | (%) | (Mbars) | (w/m^2) | (in) | 5cm | 10cm | 20cm | 50cm | 1m | 5cm | 10cm | 20cm | 50cm | 1m |
| 2026-08-30 00:00:00 | 66.58 | 0.00 | 22.62 | 262 | 28.81 | 269 | 49.3 | 851.0 | 0.0 | 0.0 | 74.84 | 77.72 | 77.90 | 74.66 | 72.32 | 4.8% | 20.3% | 22.2% | 28.2% | 21.5% |
| 2026-08-30 01:00:00 | 66.72 | 0.00 | 20.51 | 267 | 29.19 | 264 | 49.0 | 851.0 | 0.0 | 0.0 | 73.94 | 77.00 | 77.54 | 74.66 | 72.32 | 4.7% | 20.3% | 22.3% | 28.2% | 21.5% |
| 2026-08-30 02:00:00 | 66.33 | 0.00 | 14.56 | 285 | 27.45 | 254 | 50.3 | 851.0 | 0.0 | 0.1 | 73.58 | 76.46 | 77.36 | 74.66 | 72.32 | 4.7% | 20.3% | 22.3% | 28.2% | 21.5% |
| 2026-08-30 03:00:00 | 66.42 | 0.00 | 19.17 | 261 | 23.85 | 267 | 52.5 | 851.0 | 0.0 | 0.1 | 73.04 | 76.10 | 76.82 | 74.66 | 72.32 | 4.7% | 20.3% | 22.2% | 28.2% | 21.6% |
| 2026-08-30 04:00:00 | 66.24 | 0.00 | 23.55 | 267 | 33.67 | 274 | 54.6 | 851.0 | 0.0 | 0.0 | 72.86 | 75.56 | 76.64 | 74.66 | 72.32 | 4.6% | 20.3% | 22.2% | 28.3% | 21.5% |
| 2026-08-30 05:00:00 | 65.70 | 0.00 | 16.31 | 277 | 31.68 | 265 | 56.5 | 851.0 | 0.0 | 0.1 | 72.50 | 75.20 | 76.46 | 74.66 | 72.32 | 4.5% | 20.3% | 22.2% | 28.2% | 21.6% |
| 2026-08-30 06:00:00 | 64.08 | 0.00 | 18.30 | 254 | 22.48 | 257 | 60.5 | 852.0 | 23.3 | 0.2 | 72.14 | 74.84 | 76.10 | 74.48 | 72.32 | 4.6% | 20.3% | 22.2% | 28.3% | 21.5% |
| 2026-08-30 07:00:00 | 70.27 | 0.00 | 28.48 | 271 | 34.90 | 270 | 50.3 | 852.0 | 358.0 | 0.1 | 71.78 | 74.66 | 75.74 | 74.66 | 72.32 | 4.4% | 20.3% | 22.1% | 28.2% | 21.5% |
| 2026-08-30 08:00:00 | 71.13 | 0.00 | 28.50 | 258 | 36.78 | 267 | 46.6 | 852.0 | 321.5 | 0.2 | 72.50 | 74.30 | 75.56 | 74.66 | 72.32 | 4.5% | 20.3% | 22.2% | 28.2% | 21.7% |
| 2026-08-30 09:00:00 | 72.72 | 0.00 | 29.35 | 270 | 35.03 | 271 | 44.7 | 852.0 | 354.3 | 0.1 | 73.76 | 74.12 | 75.20 | 74.66 | 72.32 | 4.4% | 20.3% | 22.2% | 28.3% | 21.6% |
| 2026-08-30 10:00:00 | 80.15 | 0.00 | 24.25 | 273 | 38.25 | 262 | 30.3 | 852.0 | 822.0 | 0.3 | 75.02 | 74.48 | 75.02 | 74.66 | 72.32 | 4.6% | 20.3% | 22.1% | 28.3% | 21.5% |
| 2026-08-30 11:00:00 | 81.32 | 0.00 | 24.43 | 279 | 33.80 | 272 | 29.3 | 852.0 | 821.0 | 0.3 | 77.72 | 74.84 | 75.02 | 74.48 | 72.32 | 4.7% | 20.3% | 22.1% | 28.2% | 21.5% |
| 2026-08-30 12:00:00 | 80.92 | 0.00 | 29.33 | 272 | 35.28 | 270 | 25.0 | 852.0 | 450.9 | 0.0 | 80.06 | 75.56 | 75.02 | 74.48 | 72.32 | 4.9% | 20.3% | 22.1% | 28.3% | 21.6% |
| 2026-08-30 13:00:00 | 82.31 | 0.00 | 25.86 | 250 | 37.51 | 248 | 26.2 | 852.0 | 454.2 | 0.1 | 81.32 | 76.64 | 75.38 | 74.48 | 72.32 | 4.9% | 20.3% | 22.1% | 28.2% | 21.5% |
| 2026-08-30 14:00:00 | 81.82 | 0.00 | 29.30 | 258 | 39.75 | 244 | 25.2 | 852.0 | 374.4 | 0.0 | 82.40 | 77.36 | 75.92 | 74.48 | 72.32 | 5.1% | 20.3% | 22.1% | 28.2% | 21.6% |
| 2026-08-30 15:00:00 | 79.09 | 0.00 | 27.78 | 262 | 38.14 | 263 | 27.9 | 852.0 | 229.5 | 0.0 | 82.58 | 78.08 | 76.10 | 74.48 | 72.32 | 5.0% | 20.3% | 22.2% | 28.4% | 21.6% |
| 2026-08-30 16:00:00 | 80.01 | 0.00 | 20.87 | 263 | 34.40 | 268 | 30.5 | 852.0 | 432.7 | 0.2 | 82.04 | 78.62 | 76.64 | 74.48 | 72.32 | 5.0% | 20.2% | 22.2% | 28.2% | 21.6% |
| 2026-08-30 17:00:00 | 79.05 | 0.00 | 20.47 | 264 | 31.92 | 242 | 30.6 | 852.0 | 305.5 | 0.1 | 81.50 | 78.80 | 76.82 | 74.48 | 72.32 | 5.0% | 20.3% | 22.2% | 28.1% | 21.6% |
| 2026-08-30 18:00:00 | 76.30 | 0.00 | 18.21 | 259 | 30.31 | 263 | 29.6 | 852.0 | 119.8 | 0.0 | 80.78 | 78.80 | 77.18 | 74.30 | 72.32 | 4.8% | 20.2% | 22.2% | 28.3% | 21.6% |
| 2026-08-30 19:00:00 | 66.51 | 0.00 | 6.84 | 45 | 22.86 | 267 | 48.7 | 853.0 | 0.0 | 0.1 | 79.34 | 78.98 | 77.18 | 74.30 | 72.32 | 4.7% | 20.3% | 22.2% | 28.2% | 21.6% |
| 2026-08-30 20:00:00 | 67.28 | 0.00 | 5.48 | 304 | 14.53 | 31 | 45.1 | 853.0 | 0.0 | 0.2 | 77.54 | 78.62 | 77.18 | 74.30 | 72.14 | 4.6% | 20.3% | 22.2% | 28.2% | 21.6% |
| 2026-08-30 21:00:00 | 61.29 | 0.00 | 3.32 | 175 | 8.82 | 288 | 51.1 | 853.0 | 0.0 | -0.2 | 75.92 | 77.90 | 77.36 | 74.30 | 72.32 | 4.5% | 20.2% | 22.2% | 28.3% | 21.6% |
| 2026-08-30 22:00:00 | 62.89 | 0.00 | 9.54 | 222 | 12.42 | 193 | 51.0 | 854.0 | 0.0 | 0.0 | 74.30 | 77.36 | 77.18 | 74.30 | 72.14 | 4.4% | 20.3% | 22.2% | 28.2% | 21.6% |
| 2026-08-30 23:00:00 | 60.21 | 0.00 | 5.05 | 127 | 8.82 | 227 | 57.4 | 854.0 | 0.0 | 0.1 | 73.04 | 76.64 | 76.82 | 74.30 | 72.14 | 4.2% | 20.3% | 22.2% | 28.3% | 21.6% |